createdAt,value
2018-09-08T01:40:54.688Z,0
2018-09-08T04:02:06.128Z,3
2018-09-08T04:09:06.495Z,7
2018-09-08T04:12:06.685Z,10
2018-09-08T04:13:36.774Z,13
2018-09-08T04:15:06.852Z,17
2018-09-08T04:16:06.906Z,20
2018-09-08T04:17:06.972Z,23
2018-09-08T04:18:07.097Z,27
2018-09-08T04:18:37.120Z,30
2018-09-08T04:19:07.118Z,33
2018-09-08T04:19:37.148Z,37
2018-09-08T04:20:37.215Z,40
2018-09-08T04:21:07.257Z,47
2018-09-08T04:21:37.277Z,50
2018-09-08T04:22:07.349Z,53
2018-09-08T04:22:37.402Z,60
2018-09-08T04:23:07.406Z,63
2018-09-08T04:23:37.422Z,70
2018-09-08T04:24:07.499Z,73
2018-09-08T04:24:37.476Z,80
2018-09-08T04:25:07.468Z,87
2018-09-08T04:25:37.544Z,93
2018-09-08T04:26:07.595Z,100
2018-09-08T04:26:37.608Z,110
2018-09-08T04:27:07.625Z,117
2018-09-08T04:27:37.625Z,127
2018-09-08T04:28:07.649Z,133
2018-09-08T04:28:37.717Z,143
2018-09-08T04:29:07.717Z,153
2018-09-08T04:29:37.833Z,163
2018-09-08T04:30:07.770Z,177
2018-09-08T04:30:37.849Z,187
2018-09-08T04:31:07.838Z,200
2018-09-08T04:31:37.881Z,210
2018-09-08T04:32:07.896Z,220
2018-09-08T04:32:37.949Z,233
2018-09-08T04:33:07.953Z,250
2018-09-08T04:33:38.016Z,263
2018-09-08T04:34:08.027Z,280
2018-09-08T04:34:38.115Z,293
2018-09-08T04:35:08.093Z,310
2018-09-08T04:35:38.121Z,330
2018-09-08T04:36:08.219Z,347
2018-09-08T04:36:38.216Z,367
2018-09-08T04:37:08.202Z,383
2018-09-08T04:37:38.275Z,403
2018-09-08T04:38:08.268Z,423
2018-09-08T04:38:38.351Z,443
2018-09-08T04:39:08.368Z,460
2018-09-08T04:39:38.407Z,483
2018-09-08T04:40:08.424Z,507
2018-09-08T04:40:38.500Z,527
2018-09-08T04:41:08.511Z,553
2018-09-08T04:41:38.521Z,577
2018-09-08T04:42:08.536Z,603
2018-09-08T04:42:38.602Z,627
2018-09-08T04:43:08.593Z,650
2018-09-08T04:43:38.655Z,677
2018-09-08T04:44:08.694Z,703
2018-09-08T04:44:38.707Z,733
2018-09-08T04:45:08.727Z,757
2018-09-08T04:45:38.771Z,790
2018-09-08T04:46:08.784Z,817
2018-09-08T04:46:38.847Z,843
2018-09-08T04:47:08.893Z,867
2018-09-08T04:47:38.912Z,897
2018-09-08T04:48:08.915Z,930
2018-09-08T04:48:38.960Z,957
2018-09-08T04:49:08.979Z,990
2018-09-08T04:49:39.027Z,1020
2018-09-08T04:50:09.044Z,1053
2018-09-08T04:50:39.077Z,1080
2018-09-08T04:51:09.092Z,1113
2018-09-08T04:51:39.152Z,1140
2018-09-08T04:52:09.203Z,1180
2018-09-08T04:52:39.201Z,1210
2018-09-08T04:53:09.221Z,1250
2018-09-08T04:53:39.265Z,1290
2018-09-08T04:54:09.278Z,1310
2018-09-08T04:54:39.348Z,1350
2018-09-08T04:55:09.336Z,1387
2018-09-08T04:55:39.475Z,1427
2018-09-08T04:56:09.427Z,1453
2018-09-08T04:56:39.442Z,1500
2018-09-08T04:57:09.467Z,1530
2018-09-08T04:57:39.537Z,1567
2018-09-08T04:58:09.507Z,1607
2018-09-08T04:58:39.572Z,1647
2018-09-08T04:59:09.589Z,1687
2018-09-08T04:59:39.636Z,1743
2018-09-08T05:00:09.648Z,1847
2018-09-08T05:00:39.663Z,1820
2018-09-08T05:01:09.687Z,1877
2018-09-08T05:01:39.729Z,1940
2018-09-08T05:02:09.744Z,2017
2018-09-08T05:02:39.785Z,2027
2018-09-08T05:03:09.879Z,2133
2018-09-08T05:03:39.859Z,2080
2018-09-08T05:04:09.891Z,2197
2018-09-08T05:04:39.936Z,2120
2018-09-08T05:05:10.014Z,2160
2018-09-08T05:05:39.975Z,2243
2018-09-08T05:06:09.985Z,2237
2018-09-08T05:06:40.069Z,2247
2018-09-08T05:07:10.050Z,2300
2018-09-08T05:07:40.099Z,2363
2018-09-08T05:08:10.124Z,2357
2018-09-08T05:08:40.191Z,2393
2018-09-08T05:09:10.225Z,2460
2018-09-08T05:09:40.301Z,2553
2018-09-08T05:10:10.244Z,2583
2018-09-08T05:10:40.307Z,2553
2018-09-08T05:11:10.293Z,2590
2018-09-08T05:11:40.365Z,2630
2018-09-08T05:12:10.354Z,2823
2018-09-08T05:12:40.426Z,2783
2018-09-08T05:13:10.512Z,2993
2018-09-08T05:13:40.486Z,2840
2018-09-08T05:14:10.517Z,2833
2018-09-08T05:14:40.532Z,2897
2018-09-08T05:15:10.542Z,2957
2018-09-08T05:15:40.614Z,3007
2018-09-08T05:16:10.669Z,3190
2018-09-08T05:16:40.670Z,3080
2018-09-08T05:17:10.734Z,3230
2018-09-08T05:17:40.733Z,3167
2018-09-08T05:18:10.745Z,3170
2018-09-08T05:18:40.818Z,3510
2018-09-08T05:19:10.788Z,3323
2018-09-08T05:19:40.845Z,3393
2018-09-08T05:20:10.847Z,3220
2018-09-08T05:20:40.913Z,3600
2018-09-08T05:21:10.912Z,3420
2018-09-08T05:21:40.954Z,3347
2018-09-08T05:22:10.986Z,3343
2018-09-08T05:22:41.022Z,3423
2018-09-08T05:23:11.031Z,3410
2018-09-08T05:23:41.154Z,3443
2018-09-08T05:24:11.106Z,3467
2018-09-08T05:24:41.176Z,3483
2018-09-08T05:25:11.174Z,3537
2018-09-08T05:25:41.208Z,3527
2018-09-08T05:26:11.247Z,3590
2018-09-08T05:26:41.268Z,3610
2018-09-08T05:27:41.335Z,3630
2018-09-08T05:28:11.409Z,3660
2018-09-08T05:28:41.458Z,3687
2018-09-08T05:29:11.456Z,3727
2018-09-08T05:29:41.482Z,3763
2018-09-08T05:30:11.504Z,3780
2018-09-08T05:30:41.530Z,3827
2018-09-08T05:31:11.615Z,3850
2018-09-08T05:31:41.644Z,3950
2018-09-08T05:32:11.632Z,3963
2018-09-08T05:32:41.666Z,4130
2018-09-08T05:33:11.692Z,4057
2018-09-08T05:33:41.740Z,4013
2018-09-08T05:34:11.744Z,4327
2018-09-08T05:34:41.845Z,4137
2018-09-08T05:35:11.803Z,4290
2018-09-08T05:35:41.855Z,4177
2018-09-08T05:36:11.894Z,4257
2018-09-08T05:36:41.923Z,4347
2018-09-08T05:37:11.934Z,4353
2018-09-08T05:37:42.002Z,4393
2018-09-08T05:38:11.999Z,4563
2018-09-08T05:38:42.069Z,4523
2018-09-08T05:39:12.049Z,4613
2018-09-08T05:39:42.107Z,4693
2018-09-08T05:40:12.083Z,4753
2018-09-08T05:40:42.167Z,4730
2018-09-08T05:41:12.191Z,4863
2018-09-08T05:41:42.209Z,4783
2018-09-08T05:42:12.199Z,4777
2018-09-08T05:42:42.301Z,4847
2018-09-08T05:43:12.264Z,4837
2018-09-08T05:43:42.310Z,4853
2018-09-08T05:44:12.353Z,4863
2018-09-08T05:44:42.439Z,4907
2018-09-08T05:45:12.432Z,4910
2018-09-08T05:45:42.485Z,5000
2018-09-08T05:46:12.459Z,4983
2018-09-08T05:46:42.541Z,5020
2018-09-08T05:47:12.544Z,5100
2018-09-08T05:47:42.558Z,5133
2018-09-08T05:48:12.624Z,5197
2018-09-08T05:48:42.697Z,5333
2018-09-08T05:49:12.673Z,5427
2018-09-08T05:49:42.692Z,5483
2018-09-08T05:50:12.688Z,5573
2018-09-08T05:50:42.746Z,5760
2018-09-08T05:51:12.753Z,6667
2018-09-08T05:51:42.815Z,6023
2018-09-08T05:52:12.814Z,6187
2018-09-08T05:52:42.897Z,6030
2018-09-08T05:53:12.879Z,6100
2018-09-08T05:53:42.952Z,6123
2018-09-08T05:54:12.939Z,6207
2018-09-08T05:54:43.060Z,6120
2018-09-08T05:55:12.999Z,6163
2018-09-08T05:55:43.055Z,6227
2018-09-08T05:56:13.109Z,6257
2018-09-08T05:56:43.108Z,6133
2018-09-08T05:57:13.143Z,6127
2018-09-08T05:57:43.203Z,6097
2018-09-08T05:58:13.192Z,6540
2018-09-08T05:58:43.268Z,6100
2018-09-08T05:59:13.278Z,6210
2018-09-08T05:59:43.302Z,6070
2018-09-08T06:00:13.377Z,6013
2018-09-08T06:00:43.359Z,6057
2018-09-08T06:01:13.411Z,6490
2018-09-08T06:01:43.501Z,6033
2018-09-08T06:02:13.448Z,5907
2018-09-08T06:02:43.508Z,5790
2018-09-08T06:03:13.525Z,5730
2018-09-08T06:03:43.551Z,5703
2018-09-08T06:04:13.600Z,5760
2018-09-08T06:04:43.606Z,5670
2018-09-08T06:05:13.635Z,5550
2018-09-08T06:05:43.681Z,5627
2018-09-08T06:06:13.685Z,5503
2018-09-08T06:06:43.723Z,5773
2018-09-08T06:07:13.777Z,5593
2018-09-08T06:07:43.785Z,5820
2018-09-08T06:08:13.799Z,6017
2018-09-08T06:08:43.842Z,5883
2018-09-08T06:09:13.900Z,5557
2018-09-08T06:09:43.909Z,5530
2018-09-08T06:10:14.002Z,5523
2018-09-08T06:10:44.476Z,5540
2018-09-08T06:11:13.986Z,5557
2018-09-08T06:11:44.034Z,5600
2018-09-08T06:12:14.057Z,5640
2018-09-08T06:12:44.107Z,5823
2018-09-08T06:13:14.130Z,5690
2018-09-08T06:13:44.169Z,5677
2018-09-08T06:14:14.199Z,5703
2018-09-08T06:14:44.233Z,5740
2018-09-08T06:15:14.232Z,5783
2018-09-08T06:15:44.324Z,5833
2018-09-08T06:16:14.338Z,5873
2018-09-08T06:16:44.392Z,5913
2018-09-08T06:17:14.373Z,5933
2018-09-08T06:17:44.411Z,5987
2018-09-08T06:18:14.512Z,6023
2018-09-08T06:18:44.504Z,6070
2018-09-08T06:19:14.473Z,6130
2018-09-08T06:19:44.606Z,6243
2018-09-08T06:20:14.583Z,6360
2018-09-08T06:20:44.767Z,6497
2018-09-08T06:21:14.672Z,6637
2018-09-08T06:21:44.772Z,6807
2018-09-08T06:22:14.685Z,6943
2018-09-08T06:22:44.793Z,7177
2018-09-08T06:23:14.803Z,7357
2018-09-08T06:23:44.799Z,7720
2018-09-08T06:24:14.863Z,7777
2018-09-08T06:24:44.898Z,7663
2018-09-08T06:25:14.914Z,7940
2018-09-08T06:25:44.955Z,8317
2018-09-08T06:26:14.972Z,8107
2018-09-08T06:26:44.995Z,8230
2018-09-08T06:27:15.006Z,8377
2018-09-08T06:27:45.086Z,9677
2018-09-08T06:28:15.090Z,11930
2018-09-08T06:28:45.170Z,10107
2018-09-08T06:29:15.120Z,9477
2018-09-08T06:29:45.196Z,9400
2018-09-08T06:30:15.214Z,9787
2018-09-08T06:30:45.279Z,8840
2018-09-08T06:31:15.284Z,8900
2018-09-08T06:31:45.292Z,10240
2018-09-08T06:32:15.352Z,10767
2018-09-08T06:32:45.378Z,9523
2018-09-08T06:33:15.465Z,10997
2018-09-08T06:33:45.467Z,11600
2018-09-08T06:34:15.468Z,12530
2018-09-08T06:34:45.471Z,12097
2018-09-08T06:35:15.600Z,11713
2018-09-08T06:35:45.512Z,12007
2018-09-08T06:36:15.540Z,12417
2018-09-08T06:36:45.571Z,9887
2018-09-08T06:37:15.651Z,9733
2018-09-08T06:37:45.672Z,11267
2018-09-08T06:38:15.652Z,10990
2018-09-08T06:38:45.747Z,9937
2018-09-08T06:39:15.757Z,7083
2018-09-08T06:39:45.765Z,7053
2018-09-08T06:40:15.772Z,6950
2018-09-08T06:40:45.821Z,6920
2018-09-08T06:41:15.905Z,6987
2018-09-08T06:41:45.892Z,6963
2018-09-08T06:42:15.900Z,6997
2018-09-08T06:42:45.941Z,7017
2018-09-08T06:43:16.053Z,7060
2018-09-08T06:43:46.041Z,7067
2018-09-08T06:44:16.083Z,7633
2018-09-08T06:44:46.165Z,7120
2018-09-08T06:45:16.111Z,7137
2018-09-08T06:45:46.127Z,7127
2018-09-08T06:46:16.213Z,7390
2018-09-08T06:46:46.190Z,7223
2018-09-08T06:47:16.241Z,7323
2018-09-08T06:47:46.259Z,7177
2018-09-08T06:48:16.336Z,8133
2018-09-08T06:48:46.324Z,7907
2018-09-08T06:49:16.360Z,7113
2018-09-08T06:49:46.430Z,7140
2018-09-08T06:50:16.400Z,7170
2018-09-08T06:50:46.449Z,7190
2018-09-08T06:51:16.581Z,7377
2018-09-08T06:51:46.497Z,7227
2018-09-08T06:52:16.609Z,7213
2018-09-08T06:52:46.590Z,7210
2018-09-08T06:53:16.591Z,7273
2018-09-08T06:53:46.683Z,7307
2018-09-08T06:54:16.638Z,7367
2018-09-08T06:54:46.736Z,7433
2018-09-08T06:55:16.703Z,7630
2018-09-08T06:55:46.756Z,7623
2018-09-08T06:56:16.813Z,7757
2018-09-08T06:56:46.822Z,7887
2018-09-08T06:57:16.826Z,7903
2018-09-08T06:57:46.910Z,8023
2018-09-08T06:58:16.893Z,8217
2018-09-08T06:58:46.930Z,8350
2018-09-08T06:59:16.946Z,8467
2018-09-08T06:59:46.996Z,8593
2018-09-08T07:00:17.064Z,8823
2018-09-08T07:00:47.091Z,8917
2018-09-08T07:01:17.127Z,9177
2018-09-08T07:01:47.140Z,9157
2018-09-08T07:02:17.142Z,9290
2018-09-08T07:02:47.173Z,9387
2018-09-08T07:03:17.281Z,9210
2018-09-08T07:03:47.235Z,8983
2018-09-08T07:04:17.256Z,9370
2018-09-08T07:04:47.298Z,9557
2018-09-08T07:05:17.329Z,9373
2018-09-08T07:05:47.398Z,9297
2018-09-08T07:06:47.491Z,9287
2018-09-08T07:07:17.435Z,9330
2018-09-08T07:07:47.533Z,9347
2018-09-08T07:08:17.559Z,9470
2018-09-08T07:08:47.605Z,9373
2018-09-08T07:09:17.626Z,9413
2018-09-08T07:09:47.628Z,9313
2018-09-08T07:10:17.622Z,9187
2018-09-08T07:10:47.678Z,9270
2018-09-08T07:11:17.725Z,9333
2018-09-08T07:11:47.789Z,9177
2018-09-08T07:12:17.834Z,9160
2018-09-08T07:12:47.827Z,9140
2018-09-08T07:13:17.836Z,9443
2018-09-08T07:13:47.895Z,9453
2018-09-08T07:14:17.929Z,9517
2018-09-08T07:14:47.983Z,9990
2018-09-08T07:15:18.024Z,11860
2018-09-08T07:15:48.062Z,12300
2018-09-08T07:16:18.093Z,15500
2018-09-08T07:16:48.149Z,13343
2018-09-08T07:17:18.079Z,17260
2018-09-08T07:17:48.152Z,23017
2018-09-08T07:18:18.177Z,15157
2018-09-08T07:18:48.176Z,16193
2018-09-08T07:19:18.176Z,19097
2018-09-08T07:19:48.272Z,20033
2018-09-08T07:20:18.269Z,31640
2018-09-08T07:20:48.318Z,22713
2018-09-08T07:21:18.370Z,10740
2018-09-08T07:21:48.403Z,16287
2018-09-08T07:22:18.398Z,16733
2018-09-08T07:22:48.473Z,11580
2018-09-08T07:23:18.458Z,11573
2018-09-08T07:23:48.532Z,11363
2018-09-08T07:24:18.491Z,11307
2018-09-08T07:24:48.571Z,11863
2018-09-08T07:25:18.568Z,11373
2018-09-08T07:25:48.618Z,11433
2018-09-08T07:26:18.662Z,11730
2018-09-08T07:26:48.678Z,11513
2018-09-08T07:27:18.670Z,11703
2018-09-08T07:27:48.751Z,11730
2018-09-08T07:28:18.744Z,11947
2018-09-08T07:28:48.787Z,12060
2018-09-08T07:29:18.821Z,12230
2018-09-08T07:29:48.850Z,13100
2018-09-08T07:30:18.853Z,12147
2018-09-08T07:30:48.907Z,11900
2018-09-08T07:31:19.024Z,11887
2018-09-08T07:31:48.963Z,11900
2018-09-08T07:32:19.002Z,11847
2018-09-08T07:32:49.063Z,11907
2018-09-08T07:33:19.047Z,11847
2018-09-08T07:33:49.119Z,11750
2018-09-08T07:34:19.107Z,11677
2018-09-08T07:34:49.177Z,11693
2018-09-08T07:35:19.194Z,11470
2018-09-08T07:35:49.211Z,11200
2018-09-08T07:36:19.340Z,11203
2018-09-08T07:36:49.287Z,11483
2018-09-08T07:37:19.337Z,11093
2018-09-08T07:37:49.342Z,10990
2018-09-08T07:38:19.406Z,11083
2018-09-08T07:38:49.449Z,10993
2018-09-08T07:39:19.490Z,10863
2018-09-08T07:39:49.478Z,10680
2018-09-08T07:40:19.542Z,10657
2018-09-08T07:40:49.575Z,11843
2018-09-08T07:41:19.612Z,11070
2018-09-08T07:41:49.623Z,11430
2018-09-08T07:42:19.652Z,10917
2018-09-08T07:42:49.651Z,10407
2018-09-08T07:43:19.678Z,10167
2018-09-08T07:43:49.709Z,12030
2018-09-08T07:44:19.729Z,11500
2018-09-08T07:44:49.778Z,10377
2018-09-08T07:45:19.797Z,9930
2018-09-08T07:45:49.888Z,9893
2018-09-08T07:46:19.928Z,10210
2018-09-08T07:46:49.891Z,9773
2018-09-08T07:47:19.908Z,9653
2018-09-08T07:47:49.952Z,9623
2018-09-08T07:48:20.018Z,9477
2018-09-08T07:48:50.018Z,9377
2018-09-08T07:49:20.042Z,9353
2018-09-08T07:49:50.102Z,9357
2018-09-08T07:50:20.105Z,9070
2018-09-08T07:50:50.177Z,9023
2018-09-08T07:51:20.207Z,8933
2018-09-08T07:51:50.231Z,8983
2018-09-08T07:52:20.289Z,8907
2018-09-08T07:52:50.301Z,8803
2018-09-08T07:53:20.418Z,8863
2018-09-08T07:53:50.389Z,8690
2018-09-08T07:54:20.351Z,8673
2018-09-08T07:54:50.420Z,8670
2018-09-08T07:55:20.409Z,9450
2018-09-08T07:55:50.475Z,8583
2018-09-08T07:56:20.571Z,8477
2018-09-08T07:56:50.558Z,8340
2018-09-08T07:57:20.580Z,8410
2018-09-08T07:57:50.597Z,8290
2018-09-08T07:58:20.629Z,8287
2018-09-08T07:58:50.633Z,8213
2018-09-08T07:59:20.752Z,8193
2018-09-08T07:59:50.736Z,8597
2018-09-08T08:00:20.733Z,8150
2018-09-08T08:00:50.804Z,8313
2018-09-08T08:01:20.830Z,8143
2018-09-08T08:01:50.874Z,8090
2018-09-08T08:02:20.833Z,8000
2018-09-08T08:02:50.882Z,8010
2018-09-08T08:03:20.933Z,7940
2018-09-08T08:03:50.996Z,8260
2018-09-08T08:04:20.976Z,7970
2018-09-08T08:04:51.051Z,7997
2018-09-08T08:05:21.051Z,8273
2018-09-08T08:05:51.101Z,8163
2018-09-08T08:06:21.327Z,8103
2018-09-08T08:06:52.339Z,8047
2018-09-08T08:07:21.193Z,11017
2018-09-08T08:07:51.243Z,7973
2018-09-08T08:08:21.244Z,8037
2018-09-08T08:08:51.303Z,7977
2018-09-08T08:09:21.306Z,8107
2018-09-08T08:09:51.352Z,16460
2018-09-08T08:10:21.350Z,8063
2018-09-08T08:10:51.386Z,8040
2018-09-08T08:11:21.439Z,7990
2018-09-08T08:11:51.438Z,8030
2018-09-08T08:12:21.462Z,8037
2018-09-08T08:12:51.533Z,8060
2018-09-08T08:13:21.544Z,8113
2018-09-08T08:13:51.624Z,8120
2018-09-08T08:14:21.633Z,8017
2018-09-08T08:14:51.652Z,8027
2018-09-08T08:15:21.662Z,8087
2018-09-08T08:15:51.702Z,8207
2018-09-08T08:16:21.729Z,8107
2018-09-08T08:16:51.841Z,8100
2018-09-08T08:17:21.761Z,8143
2018-09-08T08:17:51.809Z,8093
2018-09-08T08:18:21.814Z,8230
2018-09-08T08:19:21.874Z,8133
2018-09-08T08:19:51.930Z,8157
2018-09-08T08:20:21.936Z,11200
2018-09-08T08:20:51.987Z,8880
2018-09-08T08:21:22.023Z,8400
2018-09-08T08:21:52.323Z,8370
2018-09-08T08:22:22.173Z,9587
2018-09-08T08:22:52.144Z,8697
2018-09-08T08:23:22.219Z,8317
2018-09-08T08:23:52.193Z,10173
2018-09-08T08:24:22.275Z,8533
2018-09-08T08:24:52.241Z,8423
2018-09-08T08:25:22.294Z,9413
2018-09-08T08:25:52.296Z,8443
2018-09-08T08:26:22.368Z,8843
2018-09-08T08:26:52.639Z,8610
2018-09-08T08:27:22.422Z,8453
2018-09-08T08:27:53.545Z,8480
2018-09-08T08:28:23.646Z,8507
2018-09-08T08:28:53.650Z,8540
2018-09-08T08:29:23.615Z,10177
2018-09-08T08:29:53.731Z,9830
2018-09-08T08:30:23.741Z,10250
2018-09-08T08:30:53.818Z,12813
2018-09-08T08:31:23.792Z,12330
2018-09-08T08:31:53.843Z,11573
2018-09-08T08:32:23.864Z,10463
2018-09-08T08:32:53.925Z,18300
2018-09-08T08:33:23.900Z,11077
2018-09-08T08:33:53.952Z,13537
2018-09-08T08:34:23.962Z,10257
2018-09-08T08:34:54.013Z,40733
2018-09-08T08:35:24.026Z,15810
2018-09-08T08:35:54.032Z,9543
2018-09-08T08:36:24.085Z,19913
2018-09-08T08:36:54.387Z,51530
2018-09-08T08:37:24.170Z,20267
2018-09-08T08:37:54.157Z,14267
2018-09-08T08:38:24.232Z,17247
2018-09-08T08:38:54.223Z,48580
2018-09-08T08:39:24.230Z,19100
2018-09-08T08:39:54.376Z,21913
2018-09-08T08:40:24.344Z,17540
2018-09-08T08:40:54.395Z,44993
2018-09-08T08:41:24.427Z,20193
2018-09-08T08:41:54.497Z,16803
2018-09-08T08:42:24.441Z,54670
2018-09-08T08:42:54.553Z,54707
2018-09-08T08:43:24.589Z,49710
2018-09-08T08:43:54.534Z,30893
2018-09-08T08:44:24.588Z,63303
2018-09-08T08:44:54.588Z,17293
2018-09-08T08:45:24.617Z,59507
2018-09-08T08:45:54.648Z,63630
2018-09-08T08:46:24.723Z,22207
2018-09-08T08:46:54.740Z,20347
2018-09-08T08:47:24.732Z,62893
2018-09-08T08:47:54.856Z,49857
2018-09-08T08:48:24.782Z,40990
2018-09-08T08:48:54.857Z,64313
2018-09-08T08:49:24.858Z,61417
2018-09-08T08:49:54.960Z,64300
2018-09-08T08:50:24.911Z,64977
2018-09-08T08:50:54.958Z,55183
2018-09-08T08:51:25.000Z,64853
2018-09-08T08:51:55.275Z,62453
2018-09-08T08:52:25.058Z,48937
2018-09-08T08:52:55.085Z,65440
2018-09-08T08:53:25.146Z,28717
2018-09-08T08:53:55.182Z,65963
2018-09-08T08:54:25.185Z,65680
2018-09-08T08:54:55.205Z,54817
2018-09-08T08:55:25.229Z,66047
2018-09-08T08:55:55.343Z,66240
2018-09-08T08:56:25.334Z,66677
2018-09-08T08:56:55.415Z,66940
2018-09-08T08:57:25.400Z,67513
2018-09-08T08:57:55.404Z,58307
2018-09-08T08:58:25.456Z,63543
2018-09-08T08:58:55.496Z,67553
2018-09-08T08:59:25.511Z,67880
2018-09-08T08:59:55.520Z,42780
2018-09-08T09:00:25.589Z,47233
2018-09-08T09:00:55.709Z,30100
2018-09-08T09:01:25.641Z,39447
2018-09-08T09:01:55.657Z,59040
2018-09-08T09:02:25.905Z,68840
2018-09-08T09:02:55.700Z,68970
2018-09-08T09:03:25.755Z,65517
2018-09-08T09:03:55.765Z,67237
2018-09-08T09:04:25.796Z,68373
2018-09-08T09:04:55.821Z,66837
2018-09-08T09:05:25.843Z,68617
2018-09-08T09:05:55.888Z,59670
2018-09-08T09:06:25.918Z,69940
2018-09-08T09:06:55.950Z,70233
2018-09-08T09:07:26.017Z,70933
2018-09-08T09:07:56.048Z,70820
2018-09-08T09:08:26.466Z,71767
2018-09-08T09:08:56.088Z,65730
2018-09-08T09:09:26.110Z,71173
2018-09-08T09:09:56.132Z,71273
2018-09-08T09:10:26.247Z,72080
2018-09-08T09:10:56.209Z,72643
2018-09-08T09:11:26.215Z,25193
2018-09-08T09:11:56.345Z,30520
2018-09-08T09:12:26.300Z,21650
2018-09-08T09:12:56.432Z,71337
2018-09-08T09:13:26.496Z,72523
2018-09-08T09:13:56.392Z,72843
2018-09-08T09:14:26.431Z,50037
2018-09-08T09:14:56.462Z,72377
2018-09-08T09:15:26.731Z,72910
2018-09-08T09:15:56.556Z,73100
2018-09-08T09:16:26.571Z,72973
2018-09-08T09:16:56.605Z,72783
2018-09-08T09:17:26.674Z,72840
2018-09-08T09:17:56.659Z,72193
2018-09-08T09:18:26.672Z,72843
2018-09-08T09:18:57.252Z,74217
2018-09-08T09:19:26.775Z,74010
2018-09-08T09:19:56.822Z,74743
2018-09-08T09:20:26.830Z,43617
2018-09-08T09:20:56.848Z,74147
2018-09-08T09:21:26.875Z,73393
2018-09-08T09:21:56.871Z,75360
2018-09-08T09:22:26.945Z,74437
2018-09-08T09:22:56.963Z,74257
2018-09-08T09:23:26.969Z,75143
2018-09-08T09:23:57.055Z,75023
2018-09-08T09:24:27.183Z,75340
2018-09-08T09:24:57.125Z,75030
2018-09-08T09:25:27.109Z,74123
2018-09-08T09:25:57.148Z,72060
2018-09-08T09:26:27.171Z,75557
2018-09-08T09:26:57.238Z,77893
2018-09-08T09:27:27.480Z,78237
2018-09-08T09:27:57.297Z,78250
2018-09-08T09:28:27.308Z,78643
2018-09-08T09:28:57.337Z,79270
2018-09-08T09:29:27.375Z,79193
2018-09-08T09:29:57.450Z,79627
2018-09-08T09:30:27.426Z,79617
2018-09-08T09:30:57.461Z,80147
2018-09-08T09:31:57.526Z,80010
2018-09-08T09:32:27.582Z,80500
2018-09-08T09:32:57.575Z,80490
2018-09-08T09:33:27.583Z,80240
2018-09-08T09:33:57.625Z,80200
2018-09-08T09:34:27.658Z,80627
2018-09-08T09:34:57.671Z,81183
2018-09-08T09:35:27.698Z,80807
2018-09-08T09:35:57.725Z,80843
2018-09-08T09:36:27.753Z,80397
2018-09-08T09:36:57.787Z,80930
2018-09-08T09:37:27.919Z,81063
2018-09-08T09:37:57.852Z,81240
2018-09-08T09:38:27.867Z,81580
2018-09-08T09:38:58.019Z,81820
2018-09-08T09:39:27.919Z,82927
2018-09-08T09:39:58.031Z,82910
2018-09-08T09:40:27.989Z,83097
2018-09-08T09:40:58.033Z,82953
2018-09-08T09:41:28.072Z,83260
2018-09-08T09:41:58.089Z,83207
2018-09-08T09:42:28.167Z,83567
2018-09-08T09:42:58.182Z,83550
2018-09-08T09:43:28.175Z,83467
2018-09-08T09:43:58.262Z,83327
2018-09-08T09:44:28.267Z,83147
2018-09-08T09:44:58.298Z,83283
2018-09-08T09:45:28.295Z,83340
2018-09-08T09:45:58.380Z,83053
2018-09-08T09:46:28.429Z,82263
2018-09-08T09:46:58.419Z,84183
2018-09-08T09:47:28.513Z,84010
2018-09-08T09:47:58.548Z,83880
2018-09-08T09:48:28.577Z,83437
2018-09-08T09:48:58.545Z,83220
2018-09-08T09:49:28.563Z,83217
2018-09-08T09:49:58.651Z,82750
2018-09-08T09:50:28.609Z,82703
2018-09-08T09:50:58.670Z,82963
2018-09-08T09:51:28.666Z,82933
2018-09-08T09:51:58.711Z,83100
2018-09-08T09:52:28.771Z,82907
2018-09-08T09:52:58.809Z,83017
2018-09-08T09:53:28.796Z,83510
2018-09-08T09:53:58.846Z,83620
2018-09-08T09:54:28.853Z,84337
2018-09-08T09:54:58.908Z,84280
2018-09-08T09:55:28.967Z,84600
2018-09-08T09:55:58.962Z,84800
2018-09-08T09:56:28.974Z,84900
2018-09-08T09:56:59.020Z,84997
2018-09-08T09:57:29.089Z,84987
2018-09-08T09:57:59.096Z,85527
2018-09-08T09:58:29.100Z,85380
2018-09-08T09:58:59.189Z,85443
2018-09-08T09:59:29.229Z,85397
2018-09-08T09:59:59.233Z,85787
2018-09-08T10:00:29.222Z,85243
2018-09-08T10:00:59.342Z,85657
2018-09-08T10:01:29.343Z,85687
2018-09-08T10:01:59.374Z,85187
2018-09-08T10:02:29.374Z,84987
2018-09-08T10:02:59.472Z,83447
2018-09-08T10:03:29.433Z,79690
2018-09-08T10:03:59.491Z,84480
2018-09-08T10:04:29.506Z,84680
2018-09-08T10:04:59.579Z,84677
2018-09-08T10:05:29.581Z,84227
2018-09-08T10:05:59.637Z,84213
2018-09-08T10:06:29.671Z,84313
2018-09-08T10:06:59.681Z,85090
2018-09-08T10:07:29.927Z,85200
2018-09-08T10:07:59.766Z,84930
2018-09-08T10:08:29.715Z,84937
2018-09-08T10:08:59.838Z,83670
2018-09-08T10:09:29.811Z,84430
2018-09-08T10:09:59.872Z,83040
2018-09-08T10:10:29.845Z,83817
2018-09-08T10:10:59.926Z,83523
2018-09-08T10:11:29.930Z,84777
2018-09-08T10:11:59.960Z,85850
2018-09-08T10:12:30.299Z,69863
2018-09-08T10:13:00.062Z,48773
2018-09-08T10:13:30.044Z,60983
2018-09-08T10:14:00.069Z,40927
2018-09-08T10:14:30.128Z,44223
2018-09-08T10:15:00.191Z,83843
2018-09-08T10:15:30.194Z,62523
2018-09-08T10:16:01.508Z,58167
2018-09-08T10:16:30.278Z,86583
2018-09-08T10:17:01.532Z,89147
2018-09-08T10:17:30.365Z,87553
2018-09-08T10:18:01.616Z,86407
2018-09-08T10:18:30.372Z,85973
2018-09-08T10:19:00.862Z,88163
2018-09-08T10:19:30.432Z,90210
2018-09-08T10:20:01.102Z,90847
2018-09-08T10:20:30.491Z,91843
2018-09-08T10:21:01.416Z,93970
2018-09-08T10:21:30.538Z,95147
2018-09-08T10:22:01.496Z,95353
2018-09-08T10:22:30.645Z,94460
2018-09-08T10:23:01.542Z,93487
2018-09-08T10:23:30.686Z,94477
2018-09-08T10:24:05.155Z,94533
2018-09-08T10:24:30.746Z,92530
2018-09-08T10:25:00.891Z,89790
2018-09-08T10:25:30.778Z,74153
2018-09-08T10:26:01.089Z,51400
2018-09-08T10:26:30.877Z,92330
2018-09-08T10:27:01.412Z,93353
2018-09-08T10:27:30.984Z,90773
2018-09-08T10:28:01.558Z,80917
2018-09-08T10:28:30.953Z,90187
2018-09-08T10:29:01.588Z,57097
2018-09-08T10:29:31.016Z,85967
2018-09-08T10:30:02.194Z,87813
2018-09-08T10:30:31.074Z,89120
2018-09-08T10:31:01.121Z,91570
2018-09-08T10:31:31.135Z,93260
2018-09-08T10:32:01.187Z,93380
2018-09-08T10:32:31.304Z,93437
2018-09-08T10:33:01.460Z,94413
2018-09-08T10:33:31.262Z,93940
2018-09-08T10:34:01.729Z,94797
2018-09-08T10:34:31.341Z,95457
2018-09-08T10:35:01.474Z,94703
2018-09-08T10:35:31.419Z,94320
2018-09-08T10:36:01.436Z,94417
2018-09-08T10:36:31.490Z,96990
2018-09-08T10:37:01.563Z,95390
2018-09-08T10:37:31.552Z,94283
2018-09-08T10:38:01.555Z,94067
2018-09-08T10:38:31.581Z,92910
2018-09-08T10:39:31.639Z,92157
2018-09-08T10:40:01.750Z,93137
2018-09-08T10:40:31.717Z,95327
2018-09-08T10:41:01.754Z,96817
2018-09-08T10:41:31.796Z,87257
2018-09-08T10:42:01.800Z,91977
2018-09-08T10:42:31.814Z,85590
2018-09-08T10:43:01.940Z,94887
2018-09-08T10:43:31.878Z,94727
2018-09-08T10:44:01.933Z,98470
2018-09-08T10:44:31.940Z,94540
2018-09-08T10:45:01.986Z,91723
2018-09-08T10:45:32.067Z,94567
2018-09-08T10:46:02.126Z,97910
2018-09-08T10:46:32.065Z,97493
2018-09-08T10:47:02.113Z,97477
2018-09-08T10:47:32.183Z,97123
2018-09-08T10:48:02.259Z,95580
2018-09-08T10:48:32.185Z,95433
2018-09-08T10:49:02.255Z,95393
2018-09-08T10:49:32.316Z,95877
2018-09-08T10:50:02.302Z,97073
2018-09-08T10:50:32.342Z,97207
2018-09-08T10:51:02.451Z,96703
2018-09-08T10:51:32.402Z,73303
2018-09-08T10:52:02.433Z,92347